createdAt,value
2017-12-13T00:01:50.849Z,1.50
2017-12-13T00:04:20.159Z,1.70
2017-12-13T00:06:48.220Z,1.70
2017-12-13T00:09:16.289Z,1.90
2017-12-13T00:11:44.333Z,1.90
2017-12-13T00:14:13.145Z,1.90
2017-12-13T00:16:41.213Z,1.90
2017-12-13T00:19:09.296Z,1.90
2017-12-13T00:21:37.468Z,2.00
2017-12-13T00:24:05.523Z,2.00
2017-12-13T00:26:34.328Z,1.90
2017-12-13T00:29:02.393Z,1.80
2017-12-13T00:31:30.477Z,1.80
2017-12-13T00:33:58.529Z,1.80
2017-12-13T00:36:27.030Z,1.80
2017-12-13T00:38:55.085Z,1.80
2017-12-13T00:41:23.128Z,1.90
2017-12-13T00:43:51.225Z,1.90
2017-12-13T00:46:19.325Z,1.90
2017-12-13T00:48:47.368Z,1.90
2017-12-13T00:51:15.461Z,2.00
2017-12-13T00:53:43.633Z,2.00
2017-12-13T00:56:11.685Z,2.10
2017-12-13T00:58:40.505Z,2.10
2017-12-13T01:01:08.573Z,2.10
2017-12-13T01:03:36.636Z,2.20
2017-12-13T01:06:04.700Z,2.10
2017-12-13T01:08:32.751Z,2.10
2017-12-13T01:11:01.562Z,2.10
2017-12-13T01:13:29.646Z,2.00
2017-12-13T01:15:57.816Z,1.90
2017-12-13T01:18:25.892Z,1.90
2017-12-13T01:20:53.940Z,1.90
2017-12-13T01:23:22.032Z,1.70
2017-12-13T01:25:50.104Z,1.70
2017-12-13T01:28:18.186Z,1.70
2017-12-13T01:30:46.232Z,1.50
2017-12-13T01:33:14.325Z,1.50
2017-12-13T01:35:54.377Z,1.50
2017-12-13T01:38:22.445Z,1.50
2017-12-13T01:40:50.516Z,1.60
2017-12-13T01:43:18.569Z,1.60
2017-12-13T01:45:46.637Z,1.60
2017-12-13T01:48:14.710Z,1.60
2017-12-13T01:50:43.625Z,1.70
2017-12-13T01:53:11.685Z,1.60
2017-12-13T01:55:39.768Z,1.50
2017-12-13T01:58:07.829Z,1.40
2017-12-13T02:00:35.916Z,1.40
2017-12-13T02:03:04.084Z,1.30
2017-12-13T02:05:32.156Z,1.40
2017-12-13T02:08:00.229Z,1.50
2017-12-13T02:10:28.302Z,1.40
2017-12-13T02:12:56.365Z,1.40
2017-12-13T02:15:24.417Z,1.40
2017-12-13T02:17:53.337Z,1.30
2017-12-13T02:20:21.381Z,1.30
2017-12-13T02:22:50.198Z,1.20
2017-12-13T02:25:18.261Z,1.20
2017-12-13T02:27:46.345Z,1.10
2017-12-13T02:30:14.409Z,1.10
2017-12-13T02:32:42.480Z,1.10
2017-12-13T02:35:10.925Z,1.10
2017-12-13T02:37:38.990Z,1.10
2017-12-13T02:40:19.099Z,1.10
2017-12-13T02:42:47.146Z,1.10
2017-12-13T02:45:15.201Z,1.10
2017-12-13T02:47:44.017Z,1.20
2017-12-13T02:50:12.077Z,1.20
2017-12-13T02:52:40.142Z,1.20
2017-12-13T02:55:09.502Z,1.30
2017-12-13T02:57:37.549Z,1.20
2017-12-13T03:00:05.618Z,1.20
2017-12-13T03:02:33.669Z,1.20
2017-12-13T03:05:01.712Z,1.30
2017-12-13T03:07:30.582Z,1.20
2017-12-13T03:09:58.596Z,1.20
2017-12-13T03:12:26.697Z,1.10
2017-12-13T03:14:54.861Z,1.00
2017-12-13T03:17:23.037Z,1.00
2017-12-13T03:19:51.094Z,1.00
2017-12-13T03:22:19.144Z,1.00
2017-12-13T03:24:47.972Z,1.10
2017-12-13T03:27:16.045Z,1.00
2017-12-13T03:29:44.113Z,1.10
2017-12-13T03:32:12.185Z,1.10
2017-12-13T03:34:45.822Z,1.10
2017-12-13T03:37:13.966Z,1.20
2017-12-13T03:39:42.014Z,1.20
2017-12-13T03:42:10.101Z,1.20
2017-12-13T03:44:38.565Z,1.20
2017-12-13T03:47:06.619Z,1.20
2017-12-13T03:49:34.638Z,1.20
2017-12-13T03:52:02.801Z,1.20
2017-12-13T03:54:31.698Z,1.20
2017-12-13T03:56:59.756Z,1.20
2017-12-13T03:59:34.392Z,1.30
2017-12-13T04:02:02.869Z,1.30
2017-12-13T04:04:31.038Z,1.30
2017-12-13T04:06:59.089Z,1.40
2017-12-13T04:09:28.009Z,1.50
2017-12-13T04:11:56.069Z,1.50
2017-12-13T04:14:24.158Z,1.50
2017-12-13T04:16:52.205Z,1.60
2017-12-13T04:19:20.298Z,1.60
2017-12-13T04:21:48.373Z,1.60
2017-12-13T04:24:17.263Z,1.60
2017-12-13T04:26:45.315Z,1.60
2017-12-13T04:29:13.369Z,1.60
2017-12-13T04:31:42.200Z,1.70
2017-12-13T04:34:11.796Z,1.60
2017-12-13T04:36:39.853Z,1.60
2017-12-13T04:39:07.896Z,1.60
2017-12-13T04:41:36.017Z,1.70
2017-12-13T04:44:04.070Z,1.60
2017-12-13T04:46:32.166Z,1.70
2017-12-13T04:49:00.226Z,1.70
2017-12-13T04:51:28.301Z,1.70
2017-12-13T04:53:57.870Z,1.70
2017-12-13T04:56:26.705Z,1.70
2017-12-13T04:58:54.770Z,1.70
2017-12-13T05:01:22.840Z,1.70
2017-12-13T05:03:50.897Z,1.70
2017-12-13T05:06:18.974Z,1.70
2017-12-13T05:08:47.023Z,1.70
2017-12-13T05:11:15.837Z,1.70
2017-12-13T05:13:43.916Z,1.70
2017-12-13T05:16:13.222Z,1.80
2017-12-13T05:18:41.393Z,1.80
2017-12-13T05:21:09.577Z,1.80
2017-12-13T05:23:37.637Z,1.80
2017-12-13T05:26:05.718Z,1.80
2017-12-13T05:28:33.785Z,1.80
2017-12-13T05:31:01.890Z,1.80
2017-12-13T05:33:30.035Z,1.70
2017-12-13T05:35:58.270Z,1.70
2017-12-13T05:38:26.273Z,1.70
2017-12-13T05:40:54.346Z,1.70
2017-12-13T05:43:22.801Z,1.70
2017-12-13T05:45:52.048Z,1.70
2017-12-13T05:48:20.098Z,1.70
2017-12-13T05:50:48.161Z,1.80
2017-12-13T05:53:16.246Z,1.70
2017-12-13T05:55:44.317Z,1.80
2017-12-13T05:58:12.478Z,1.70
2017-12-13T06:00:40.562Z,1.70
2017-12-13T06:03:08.617Z,1.80
2017-12-13T06:05:38.185Z,1.80
2017-12-13T06:10:35.723Z,1.80
2017-12-13T06:13:04.920Z,1.80
2017-12-13T06:18:03.530Z,1.80
2017-12-13T06:20:31.569Z,1.80
2017-12-13T06:22:59.638Z,1.90
2017-12-13T06:25:28.451Z,1.80
2017-12-13T06:30:26.601Z,1.90
2017-12-13T06:32:55.049Z,1.90
2017-12-13T06:35:23.197Z,1.90
2017-12-13T06:37:51.285Z,2.60
2017-12-13T06:40:19.193Z,2.50
2017-12-13T06:42:47.941Z,2.30
2017-12-13T06:45:15.444Z,2.20
2017-12-13T06:47:43.334Z,2.10
2017-12-13T06:52:40.004Z,2.00
2017-12-13T06:55:08.275Z,2.10
2017-12-13T06:57:37.093Z,2.00
2017-12-13T07:00:04.588Z,1.90
2017-12-13T07:02:32.097Z,1.80
2017-12-13T07:04:59.612Z,1.80
2017-12-13T07:07:27.874Z,1.80
2017-12-13T07:09:55.373Z,1.80
2017-12-13T07:12:22.903Z,1.70
2017-12-13T07:14:51.164Z,1.70
2017-12-13T07:17:18.660Z,1.70
2017-12-13T07:19:46.168Z,1.70
2017-12-13T07:22:13.672Z,1.70
2017-12-13T07:24:41.173Z,1.60
2017-12-13T07:27:09.454Z,1.60
2017-12-13T07:29:36.952Z,1.60
2017-12-13T07:32:05.599Z,1.60
2017-12-13T07:34:33.093Z,1.60
2017-12-13T07:37:01.369Z,1.60
2017-12-13T07:39:29.645Z,1.60
2017-12-13T07:41:57.909Z,1.60
2017-12-13T07:44:25.416Z,1.70
2017-12-13T07:46:52.931Z,1.60
2017-12-13T07:49:20.432Z,1.70
2017-12-13T07:51:47.936Z,1.70
2017-12-13T07:54:15.457Z,1.70
2017-12-13T07:56:42.948Z,1.70
2017-12-13T07:59:10.449Z,1.80
2017-12-13T08:01:38.712Z,1.80
2017-12-13T08:04:06.977Z,1.80
2017-12-13T08:06:34.489Z,1.80
2017-12-13T08:09:01.996Z,1.80
2017-12-13T08:11:29.505Z,1.80
2017-12-13T08:13:57.077Z,1.80
2017-12-13T08:16:25.373Z,1.80
2017-12-13T08:18:53.268Z,1.80
2017-12-13T08:21:21.900Z,1.80
2017-12-13T08:23:49.414Z,-0.50
2017-12-13T08:26:17.674Z,2.00
2017-12-13T08:28:45.201Z,2.00
2017-12-13T08:31:12.748Z,2.60
2017-12-13T08:33:40.981Z,2.80
2017-12-13T08:36:08.890Z,2.70
2017-12-13T08:38:36.385Z,2.70
2017-12-13T08:41:03.880Z,3.20
2017-12-13T08:43:32.148Z,4.40
2017-12-13T08:46:01.153Z,5.10
2017-12-13T08:48:28.661Z,4.90
2017-12-13T08:50:56.157Z,4.50
2017-12-13T08:53:24.441Z,5.10
2017-12-13T08:55:52.705Z,5.40
2017-12-13T08:58:20.970Z,4.90
2017-12-13T09:00:48.476Z,5.20
2017-12-13T09:03:16.008Z,5.30
2017-12-13T09:05:44.280Z,4.70
2017-12-13T09:08:12.928Z,4.20
2017-12-13T09:10:40.433Z,4.80
2017-12-13T09:13:08.737Z,5.70
2017-12-13T09:15:36.245Z,6.50
2017-12-13T09:18:03.768Z,7.00
2017-12-13T09:20:31.750Z,7.20
2017-12-13T09:22:59.822Z,6.90
2017-12-13T09:25:28.271Z,6.90
2017-12-13T09:27:56.375Z,6.60
2017-12-13T09:30:25.150Z,5.30
2017-12-13T09:32:53.193Z,4.80
2017-12-13T09:35:21.267Z,5.20
2017-12-13T09:37:49.314Z,5.30
2017-12-13T09:40:18.121Z,4.70
2017-12-13T09:42:46.185Z,4.20
2017-12-13T09:45:14.229Z,4.00
2017-12-13T09:47:42.273Z,3.80
2017-12-13T09:50:11.442Z,3.80
2017-12-13T09:52:39.486Z,3.80
2017-12-13T09:55:08.314Z,3.80
2017-12-13T09:57:36.757Z,3.80
2017-12-13T10:00:05.589Z,3.80
2017-12-13T10:02:33.638Z,3.80
2017-12-13T10:07:31.261Z,3.60
2017-12-13T10:09:59.311Z,3.60
2017-12-13T10:12:27.382Z,3.60
2017-12-13T10:14:55.421Z,3.60
2017-12-13T10:17:23.441Z,3.70
2017-12-13T10:19:51.513Z,3.60
2017-12-13T10:22:19.529Z,3.70
2017-12-13T10:24:48.336Z,3.80
2017-12-13T10:27:16.402Z,4.00
2017-12-13T10:29:44.445Z,4.10
2017-12-13T10:32:12.037Z,4.20
2017-12-13T10:34:41.137Z,4.10
2017-12-13T10:37:09.218Z,4.20
2017-12-13T10:39:38.037Z,4.10
2017-12-13T10:42:05.664Z,4.20
2017-12-13T10:44:33.654Z,4.20
2017-12-13T10:47:01.697Z,4.20
2017-12-13T10:49:29.297Z,4.10
2017-12-13T10:51:56.816Z,4.10
2017-12-13T10:54:24.332Z,4.20
2017-12-13T10:56:52.627Z,4.20
2017-12-13T10:59:20.601Z,4.20
2017-12-13T11:01:48.621Z,4.20
2017-12-13T11:04:16.685Z,4.30
2017-12-13T11:06:44.741Z,4.30
2017-12-13T11:09:12.786Z,4.30
2017-12-13T11:11:41.616Z,4.30
2017-12-13T11:14:09.669Z,4.30
2017-12-13T11:16:37.718Z,4.30
2017-12-13T11:19:06.578Z,4.30
2017-12-13T11:21:34.581Z,4.30
2017-12-13T11:24:03.410Z,4.30
2017-12-13T11:26:31.465Z,4.30
2017-12-13T11:28:59.520Z,4.30
2017-12-13T11:31:28.345Z,4.30
2017-12-13T11:33:56.410Z,4.30
2017-12-13T11:36:24.453Z,4.30
2017-12-13T11:38:52.513Z,4.30
2017-12-13T11:41:21.332Z,4.30
2017-12-13T11:43:49.373Z,4.30
2017-12-13T11:46:18.578Z,4.20
2017-12-13T11:48:47.415Z,4.30
2017-12-13T11:51:15.425Z,4.30
2017-12-13T11:53:44.236Z,4.30
2017-12-13T11:56:12.301Z,4.20
2017-12-13T11:58:41.129Z,4.10
2017-12-13T12:01:09.198Z,4.10
2017-12-13T12:03:37.245Z,4.00
2017-12-13T12:06:05.285Z,3.90
2017-12-13T12:08:33.342Z,3.90
2017-12-13T12:11:01.414Z,3.80
2017-12-13T12:13:29.470Z,3.80
2017-12-13T12:15:58.273Z,3.70
2017-12-13T12:20:56.410Z,3.70
2017-12-13T12:23:24.470Z,3.70
2017-12-13T12:25:53.367Z,3.70
2017-12-13T12:28:21.357Z,3.60
2017-12-13T12:30:50.254Z,3.50
2017-12-13T12:33:17.860Z,3.50
2017-12-13T12:35:46.711Z,3.50
2017-12-13T12:38:15.049Z,3.50
2017-12-13T12:40:43.428Z,3.40
2017-12-13T12:43:11.449Z,3.50
2017-12-13T12:45:39.468Z,3.50
2017-12-13T12:48:08.397Z,3.50
2017-12-13T12:50:35.968Z,3.50
2017-12-13T12:53:03.495Z,3.50
2017-12-13T12:55:30.989Z,3.50
2017-12-13T12:57:58.493Z,3.40
2017-12-13T13:00:26.772Z,3.50
2017-12-13T13:02:55.045Z,3.40
2017-12-13T13:05:23.300Z,3.40
2017-12-13T13:07:52.041Z,3.40
2017-12-13T13:10:20.105Z,3.30
2017-12-13T13:12:48.145Z,3.30
2017-12-13T13:15:16.975Z,3.20
2017-12-13T13:17:45.149Z,3.20
2017-12-13T13:20:13.326Z,3.20
2017-12-13T13:22:41.402Z,3.10
2017-12-13T13:25:09.877Z,3.00
2017-12-13T13:27:37.941Z,3.00
2017-12-13T13:30:05.997Z,2.90
2017-12-13T13:32:34.810Z,2.90
2017-12-13T13:35:02.866Z,2.80
2017-12-13T13:37:30.962Z,2.70
2017-12-13T13:39:58.580Z,2.70
2017-12-13T13:42:26.590Z,2.70
2017-12-13T13:44:54.609Z,2.70
2017-12-13T13:47:22.729Z,2.70
2017-12-13T13:49:50.782Z,2.70
2017-12-13T13:52:19.286Z,2.70
2017-12-13T13:54:47.357Z,2.80
2017-12-13T13:57:16.538Z,2.80
2017-12-13T13:59:44.593Z,2.90
2017-12-13T14:02:13.417Z,2.90
2017-12-13T14:04:42.722Z,2.90
2017-12-13T14:07:10.765Z,2.90
2017-12-13T14:12:08.142Z,2.90
2017-12-13T14:14:36.229Z,2.90
2017-12-13T14:17:04.278Z,2.90
2017-12-13T14:22:02.473Z,2.90
2017-12-13T14:24:30.897Z,2.80
2017-12-13T14:31:57.673Z,2.80
2017-12-13T14:39:23.810Z,2.70
2017-12-13T14:41:53.006Z,2.50
2017-12-13T14:44:21.058Z,2.40
2017-12-13T14:54:17.062Z,2.10
2017-12-13T14:56:45.125Z,2.10
2017-12-13T15:01:43.726Z,2.00
2017-12-13T15:04:11.796Z,2.00
2017-12-13T15:06:41.353Z,2.00
2017-12-13T15:14:07.977Z,2.20
2017-12-13T15:16:36.149Z,2.50
2017-12-13T15:19:04.970Z,2.60
2017-12-13T15:21:32.541Z,2.50
2017-12-13T15:26:30.026Z,1.90
2017-12-13T15:31:26.296Z,1.70
2017-12-13T15:33:55.046Z,1.70
2017-12-13T15:36:23.491Z,1.70
2017-12-13T15:38:52.318Z,1.70
2017-12-13T15:41:20.453Z,1.70
2017-12-13T15:43:48.497Z,1.70
2017-12-13T15:46:17.425Z,1.60
2017-12-13T15:48:45.469Z,1.60
2017-12-13T15:51:14.310Z,1.60
2017-12-13T15:53:42.350Z,1.60
2017-12-13T15:56:10.410Z,1.60
2017-12-13T15:58:39.223Z,1.60
2017-12-13T16:01:07.273Z,1.60
2017-12-13T16:03:35.317Z,1.70
2017-12-13T16:06:04.141Z,1.60
2017-12-13T16:08:32.200Z,1.60
2017-12-13T16:11:01.381Z,1.60
2017-12-13T16:13:30.214Z,1.70
2017-12-13T16:15:58.309Z,1.70
2017-12-13T16:18:26.445Z,1.70
2017-12-13T16:20:55.653Z,1.70
2017-12-13T16:23:23.716Z,1.80
2017-12-13T16:25:52.153Z,1.80
2017-12-13T16:28:20.269Z,1.80
2017-12-13T16:30:48.708Z,2.50
2017-12-13T16:33:16.737Z,2.60
2017-12-13T16:35:44.777Z,2.20
2017-12-13T16:38:12.841Z,2.10
2017-12-13T16:40:40.433Z,2.00
2017-12-13T16:43:09.887Z,2.10
2017-12-13T16:50:36.590Z,2.10
2017-12-13T16:55:34.750Z,2.30
2017-12-13T16:58:03.211Z,2.20
2017-12-13T17:00:30.809Z,2.20
2017-12-13T17:02:59.845Z,2.20
2017-12-13T17:07:56.917Z,2.20
2017-12-13T17:10:24.436Z,2.20
2017-12-13T17:12:52.746Z,2.20
2017-12-13T17:15:20.648Z,2.20
2017-12-13T17:17:48.951Z,2.20
2017-12-13T17:20:16.861Z,2.30
2017-12-13T17:22:45.165Z,2.20
2017-12-13T17:25:13.073Z,2.30
2017-12-13T17:27:41.797Z,2.30
2017-12-13T17:30:09.713Z,2.30
2017-12-13T17:32:37.657Z,2.40
2017-12-13T17:35:05.943Z,2.40
2017-12-13T17:37:33.879Z,2.40
2017-12-13T17:40:01.500Z,2.40
2017-12-13T17:42:29.405Z,2.40
2017-12-13T17:44:57.688Z,2.40
2017-12-13T17:47:25.278Z,2.40
2017-12-13T17:49:53.177Z,2.50
2017-12-13T17:52:21.832Z,2.50
2017-12-13T17:54:50.147Z,2.50
2017-12-13T17:57:18.800Z,2.50
2017-12-13T17:59:47.075Z,2.50
2017-12-13T18:02:15.022Z,2.60
2017-12-13T18:04:42.929Z,2.60
2017-12-13T18:07:10.469Z,2.60
2017-12-13T18:09:38.759Z,2.60
2017-12-13T18:12:07.049Z,2.60
2017-12-13T18:14:35.877Z,2.60
2017-12-13T18:17:04.161Z,2.70
2017-12-13T18:19:31.701Z,2.70
2017-12-13T18:21:59.610Z,2.70
2017-12-13T18:24:27.968Z,2.70
2017-12-13T18:26:56.252Z,2.70
2017-12-13T18:29:24.173Z,2.70
2017-12-13T18:31:52.523Z,2.70
2017-12-13T18:34:20.769Z,2.70
2017-12-13T18:36:49.944Z,2.70
2017-12-13T18:39:18.225Z,2.80
2017-12-13T18:41:46.120Z,2.80
2017-12-13T18:44:13.614Z,2.80
2017-12-13T18:46:41.889Z,2.80
2017-12-13T18:49:09.840Z,2.90
2017-12-13T18:51:38.117Z,2.90
2017-12-13T18:54:07.143Z,3.00
2017-12-13T18:56:34.688Z,3.00
2017-12-13T18:59:02.584Z,3.00
2017-12-13T19:01:31.232Z,3.00
2017-12-13T19:03:59.176Z,3.00
2017-12-13T19:06:28.197Z,3.10
2017-12-13T19:08:56.565Z,3.10
2017-12-13T19:11:24.061Z,3.20
2017-12-13T19:13:52.733Z,3.20
2017-12-13T19:16:20.345Z,3.20
2017-12-13T19:18:47.872Z,3.20
2017-12-13T19:21:15.405Z,3.30
2017-12-13T19:23:43.704Z,3.30
2017-12-13T19:26:12.012Z,3.30
2017-12-13T19:28:39.926Z,3.30
2017-12-13T19:31:08.266Z,3.40
2017-12-13T19:33:36.192Z,3.40
2017-12-13T19:36:04.200Z,3.40
2017-12-13T19:38:33.297Z,3.40
2017-12-13T19:41:00.856Z,3.40
2017-12-13T19:43:28.824Z,3.40
2017-12-13T19:45:56.732Z,3.40
2017-12-13T19:48:25.017Z,3.50
2017-12-13T19:50:52.941Z,3.50
2017-12-13T19:53:21.448Z,3.50
2017-12-13T19:55:49.377Z,3.60
2017-12-13T19:58:17.298Z,3.60
2017-12-13T20:00:45.233Z,3.70
2017-12-13T20:03:14.261Z,3.80
2017-12-13T20:05:42.296Z,3.80
2017-12-13T20:08:10.180Z,3.80
2017-12-13T20:10:38.113Z,3.80
2017-12-13T20:13:06.102Z,3.90
2017-12-13T20:15:35.192Z,3.90
2017-12-13T20:18:02.726Z,3.90
2017-12-13T20:20:31.129Z,4.00
2017-12-13T20:22:59.396Z,4.00
2017-12-13T20:25:27.314Z,4.10
2017-12-13T20:27:55.245Z,4.10
2017-12-13T20:30:24.290Z,4.10
2017-12-13T20:32:51.821Z,4.10
2017-12-13T20:35:20.101Z,4.10
2017-12-13T20:37:48.029Z,4.10
2017-12-13T20:40:15.945Z,4.10
2017-12-13T20:42:44.242Z,4.10
2017-12-13T20:45:11.865Z,4.10
2017-12-13T20:47:39.798Z,4.10
2017-12-13T20:50:08.118Z,4.20
2017-12-13T20:52:36.038Z,4.20
2017-12-13T20:55:04.376Z,4.20
2017-12-13T20:57:32.647Z,4.30
2017-12-13T21:00:00.568Z,4.20
2017-12-13T21:02:28.854Z,4.30
2017-12-13T21:04:57.535Z,4.30
2017-12-13T21:07:26.638Z,4.30
2017-12-13T21:09:55.448Z,4.30
2017-12-13T21:12:23.065Z,4.30
2017-12-13T21:14:51.724Z,4.30
2017-12-13T21:17:19.632Z,4.50
2017-12-13T21:19:47.920Z,4.40
2017-12-13T21:22:16.181Z,4.40
2017-12-13T21:24:44.446Z,4.50
2017-12-13T21:27:12.344Z,4.40
2017-12-13T21:29:40.236Z,4.50
2017-12-13T21:32:09.257Z,4.50
2017-12-13T21:34:37.153Z,4.50
2017-12-13T21:37:05.435Z,4.50
2017-12-13T21:39:33.704Z,4.50
2017-12-13T21:42:01.989Z,4.60
2017-12-13T21:44:29.493Z,4.60
2017-12-13T21:46:57.052Z,4.60
2017-12-13T21:49:24.564Z,4.60
2017-12-13T21:51:52.061Z,4.50
2017-12-13T21:54:19.561Z,4.60
2017-12-13T21:56:47.081Z,4.60
2017-12-13T21:59:14.593Z,4.60
2017-12-13T22:01:42.892Z,4.60
2017-12-13T22:04:10.409Z,4.60
2017-12-13T22:06:38.669Z,4.60
2017-12-13T22:09:06.181Z,4.60
2017-12-13T22:11:33.680Z,4.60
2017-12-13T22:14:01.207Z,4.70
2017-12-13T22:16:28.761Z,4.60
2017-12-13T22:18:56.329Z,4.60
2017-12-13T22:21:23.865Z,4.60
2017-12-13T22:23:51.394Z,4.60
2017-12-13T22:26:19.673Z,4.70
2017-12-13T22:28:47.932Z,4.70
2017-12-13T22:31:15.463Z,4.70
2017-12-13T22:33:42.944Z,4.70
2017-12-13T22:36:10.457Z,4.70
2017-12-13T22:38:37.957Z,4.70
2017-12-13T22:41:05.460Z,4.70
2017-12-13T22:43:32.996Z,4.70
2017-12-13T22:46:00.517Z,4.70
2017-12-13T22:48:28.024Z,4.80
2017-12-13T22:50:55.549Z,4.80
2017-12-13T22:53:23.834Z,4.80
2017-12-13T22:55:52.138Z,4.80
2017-12-13T22:58:20.048Z,4.80
2017-12-13T23:00:50.396Z,4.80
2017-12-13T23:03:17.925Z,4.80
2017-12-13T23:05:45.440Z,4.80
2017-12-13T23:08:12.958Z,4.80
2017-12-13T23:10:40.491Z,4.80
2017-12-13T23:13:08.385Z,4.80
2017-12-13T23:15:35.886Z,4.80
2017-12-13T23:18:03.414Z,4.80
2017-12-13T23:20:30.933Z,4.80
2017-12-13T23:22:58.841Z,4.80
2017-12-13T23:25:26.740Z,4.90
2017-12-13T23:27:54.277Z,4.80
2017-12-13T23:30:22.557Z,4.80
2017-12-13T23:32:50.472Z,4.80
2017-12-13T23:35:18.002Z,4.80
2017-12-13T23:37:45.514Z,4.80
2017-12-13T23:40:13.049Z,4.80
2017-12-13T23:42:40.573Z,4.80
2017-12-13T23:45:08.092Z,4.70
2017-12-13T23:47:37.121Z,4.80
2017-12-13T23:50:05.400Z,4.70
2017-12-13T23:52:33.699Z,4.70
2017-12-13T23:55:01.620Z,4.70
2017-12-13T23:57:29.137Z,4.80
2017-12-13T23:59:56.673Z,4.80
